createdAt,value
2023-02-23T00:02:29.207Z,11.57
2023-02-23T00:05:38.080Z,11.23
2023-02-23T00:08:41.473Z,12.60
2023-02-23T00:11:44.459Z,11.03
2023-02-23T00:14:47.432Z,10.57
2023-02-23T00:17:51.751Z,11.67
2023-02-23T00:20:59.507Z,11.43
2023-02-23T00:24:04.626Z,10.57
2023-02-23T00:27:07.644Z,11.03
2023-02-23T00:30:12.290Z,9.83
2023-02-23T00:33:15.285Z,11.37
2023-02-23T00:36:19.586Z,11.67
2023-02-23T00:39:26.630Z,10.83
2023-02-23T00:42:32.185Z,11.83
2023-02-23T00:45:36.588Z,11.27
2023-02-23T00:48:40.201Z,11.70
2023-02-23T00:51:44.831Z,11.57
2023-02-23T00:54:47.874Z,11.87
2023-02-23T00:57:51.238Z,11.43
2023-02-23T01:00:54.978Z,11.80
2023-02-23T01:03:58.344Z,11.90
2023-02-23T01:07:06.478Z,11.50
2023-02-23T01:10:19.450Z,12.07
2023-02-23T01:13:23.569Z,10.37
2023-02-23T01:16:28.966Z,12.90
2023-02-23T01:19:34.825Z,11.23
2023-02-23T01:22:39.229Z,12.17
2023-02-23T01:25:42.956Z,12.50
2023-02-23T01:28:49.161Z,12.10
2023-02-23T01:31:52.327Z,11.43
2023-02-23T01:34:55.469Z,12.57
2023-02-23T01:38:00.334Z,12.43
2023-02-23T01:41:03.771Z,11.97
2023-02-23T01:44:09.223Z,11.93
2023-02-23T01:47:15.127Z,12.87
2023-02-23T01:50:19.886Z,12.40
2023-02-23T01:53:26.091Z,13.67
2023-02-23T01:56:33.133Z,12.53
2023-02-23T01:59:40.776Z,11.80
2023-02-23T02:02:48.776Z,11.80
2023-02-23T02:05:52.921Z,12.63
2023-02-23T02:09:01.009Z,12.70
2023-02-23T02:12:08.458Z,11.93
2023-02-23T02:15:17.559Z,11.83
2023-02-23T02:18:31.461Z,12.27
2023-02-23T02:22:04.840Z,12.17
2023-02-23T02:25:32.453Z,12.13
2023-02-23T02:29:11.246Z,12.23
2023-02-23T02:32:57.362Z,12.03
2023-02-23T02:36:26.705Z,12.93
2023-02-23T02:39:41.074Z,12.63
2023-02-23T02:42:55.591Z,13.07
2023-02-23T02:46:04.634Z,13.50
2023-02-23T02:49:12.140Z,12.47
2023-02-23T02:52:20.220Z,12.37
2023-02-23T02:55:28.526Z,13.53
2023-02-23T02:58:33.592Z,12.33
2023-02-23T03:01:54.313Z,12.27
2023-02-23T03:05:15.220Z,11.50
2023-02-23T03:08:40.318Z,11.93
2023-02-23T03:12:11.287Z,12.47
2023-02-23T03:15:46.890Z,13.27
2023-02-23T03:19:25.380Z,11.97
2023-02-23T03:22:50.959Z,13.17
2023-02-23T03:26:20.594Z,12.70
2023-02-23T03:29:50.301Z,11.93
2023-02-23T03:33:15.240Z,13.07
2023-02-23T03:36:42.901Z,13.17
2023-02-23T03:40:10.753Z,12.40
2023-02-23T03:43:36.394Z,12.57
2023-02-23T03:46:59.896Z,13.23
2023-02-23T03:50:26.612Z,13.00
2023-02-23T03:53:53.664Z,14.60
2023-02-23T03:57:16.951Z,13.77
2023-02-23T04:00:49.241Z,13.30
2023-02-23T04:04:14.749Z,13.00
2023-02-23T04:07:37.726Z,13.00
2023-02-23T04:11:05.163Z,12.80
2023-02-23T04:14:16.347Z,13.97
2023-02-23T04:17:25.693Z,12.60
2023-02-23T04:20:30.269Z,12.83
2023-02-23T04:23:33.787Z,13.53
2023-02-23T04:26:37.178Z,15.10
2023-02-23T04:29:40.577Z,13.57
2023-02-23T04:32:44.479Z,13.17
2023-02-23T04:35:49.389Z,14.87
2023-02-23T04:38:52.570Z,14.90
2023-02-23T04:41:55.706Z,14.40
2023-02-23T04:44:59.131Z,15.30
2023-02-23T04:48:02.268Z,15.43
2023-02-23T04:51:07.542Z,16.63
2023-02-23T04:54:10.626Z,15.80
2023-02-23T04:57:13.782Z,15.73
2023-02-23T05:00:18.091Z,15.17
2023-02-23T05:03:21.292Z,16.17
2023-02-23T05:06:25.649Z,16.00
2023-02-23T05:09:28.809Z,14.93
2023-02-23T05:12:32.140Z,13.63
2023-02-23T05:15:35.409Z,15.50
2023-02-23T05:18:38.597Z,13.67
2023-02-23T05:21:43.000Z,14.47
2023-02-23T05:24:46.467Z,14.00
2023-02-23T05:27:49.672Z,13.87
2023-02-23T05:30:52.713Z,13.63
2023-02-23T05:33:55.810Z,14.03
2023-02-23T05:37:00.235Z,13.90
2023-02-23T05:40:03.750Z,14.33
2023-02-23T05:43:06.977Z,13.57
2023-02-23T05:46:11.406Z,14.53
2023-02-23T05:49:14.824Z,13.30
2023-02-23T05:52:19.288Z,14.30
2023-02-23T05:55:22.423Z,17.17
2023-02-23T05:58:25.643Z,18.37
2023-02-23T06:01:29.066Z,18.40
2023-02-23T06:04:32.482Z,18.47
2023-02-23T06:07:37.518Z,18.03
2023-02-23T06:10:40.667Z,18.03
2023-02-23T06:13:43.835Z,17.70
2023-02-23T06:16:48.752Z,18.97
2023-02-23T06:19:51.810Z,19.17
2023-02-23T06:22:56.753Z,21.07
2023-02-23T06:26:00.676Z,19.17
2023-02-23T06:29:03.721Z,19.47
2023-02-23T06:32:07.465Z,18.67
2023-02-23T06:35:11.032Z,18.40
2023-02-23T06:38:16.274Z,20.63
2023-02-23T06:41:19.637Z,19.83
2023-02-23T06:44:23.403Z,20.13
2023-02-23T06:47:26.677Z,19.40
2023-02-23T06:50:30.852Z,20.00
2023-02-23T06:53:35.604Z,21.17
2023-02-23T06:56:38.710Z,19.40
2023-02-23T06:59:42.672Z,21.97
2023-02-23T07:02:45.875Z,20.00
2023-02-23T07:05:50.158Z,21.23
2023-02-23T07:08:54.694Z,20.90
2023-02-23T07:11:58.097Z,22.83
2023-02-23T07:15:01.461Z,22.50
2023-02-23T07:18:04.983Z,21.27
2023-02-23T07:21:10.713Z,23.27
2023-02-23T07:24:15.141Z,23.20
2023-02-23T07:27:18.476Z,24.23
2023-02-23T07:30:26.348Z,21.23
2023-02-23T07:33:29.431Z,22.67
2023-02-23T07:36:32.540Z,20.33
2023-02-23T07:39:37.099Z,21.97
2023-02-23T07:42:40.201Z,21.90
2023-02-23T07:45:45.542Z,22.17
2023-02-23T07:48:49.508Z,21.50
2023-02-23T07:51:52.699Z,21.30
2023-02-23T07:54:57.700Z,21.63
2023-02-23T07:58:01.392Z,19.83
2023-02-23T08:01:04.709Z,19.60
2023-02-23T08:04:07.820Z,18.60
2023-02-23T08:07:11.107Z,17.57
2023-02-23T08:10:15.927Z,18.83
2023-02-23T08:13:19.299Z,18.60
2023-02-23T08:16:22.378Z,18.97
2023-02-23T08:19:25.536Z,16.87
2023-02-23T08:22:30.466Z,17.50
2023-02-23T08:25:36.903Z,17.67
2023-02-23T08:28:41.812Z,18.00
2023-02-23T08:31:45.029Z,18.43
2023-02-23T08:34:48.128Z,19.77
2023-02-23T08:37:51.324Z,17.70
2023-02-23T08:40:56.254Z,19.13
2023-02-23T08:43:59.924Z,18.17
2023-02-23T08:47:04.563Z,17.77
2023-02-23T08:50:11.014Z,17.60
2023-02-23T08:53:14.335Z,16.93
2023-02-23T08:56:18.880Z,16.20
2023-02-23T08:59:22.110Z,14.63
2023-02-23T09:02:25.251Z,16.83
2023-02-23T09:05:28.756Z,16.03
2023-02-23T09:08:32.099Z,17.20
2023-02-23T09:11:36.637Z,17.47
2023-02-23T09:14:40.401Z,19.80
2023-02-23T09:17:45.015Z,18.83
2023-02-23T09:20:48.306Z,20.10
2023-02-23T09:23:52.761Z,21.30
2023-02-23T09:26:57.275Z,21.57
2023-02-23T09:30:00.498Z,21.87
2023-02-23T09:33:03.859Z,24.90
2023-02-23T09:36:08.546Z,23.73
2023-02-23T09:39:12.280Z,24.03
2023-02-23T09:42:30.853Z,24.13
2023-02-23T09:45:41.146Z,24.47
2023-02-23T09:48:44.333Z,25.07
2023-02-23T09:51:57.623Z,26.47
2023-02-23T09:55:01.070Z,26.57
2023-02-23T09:58:09.487Z,28.83
2023-02-23T10:01:46.222Z,30.87
2023-02-23T10:04:54.240Z,29.80
2023-02-23T10:08:07.337Z,29.87
2023-02-23T10:11:22.253Z,30.53
2023-02-23T10:14:44.121Z,30.27
2023-02-23T10:18:03.155Z,29.53
2023-02-23T10:21:10.599Z,30.17
2023-02-23T10:24:19.396Z,29.37
2023-02-23T10:27:24.930Z,29.17
2023-02-23T10:30:31.404Z,28.00
2023-02-23T10:33:40.026Z,31.07
2023-02-23T10:36:49.114Z,29.37
2023-02-23T10:39:53.549Z,28.10
2023-02-23T10:42:58.437Z,28.87
2023-02-23T10:46:04.487Z,29.53
2023-02-23T10:49:11.473Z,27.93
2023-02-23T10:52:18.016Z,28.67
2023-02-23T10:55:25.301Z,27.63
2023-02-23T10:58:29.558Z,28.10
2023-02-23T11:02:00.428Z,26.77
2023-02-23T11:05:06.985Z,26.73
2023-02-23T11:08:20.688Z,27.47
2023-02-23T11:11:28.725Z,26.67
2023-02-23T11:14:33.091Z,25.03
2023-02-23T11:17:38.871Z,24.63
2023-02-23T11:20:43.258Z,24.20
2023-02-23T11:23:46.484Z,24.20
2023-02-23T11:26:51.505Z,25.10
2023-02-23T11:29:58.138Z,24.00
2023-02-23T11:33:10.622Z,23.47
2023-02-23T11:36:26.494Z,24.17
2023-02-23T11:39:29.563Z,24.50
2023-02-23T11:42:34.158Z,23.50
2023-02-23T11:45:45.597Z,22.87
2023-02-23T11:48:54.039Z,23.80
2023-02-23T11:51:59.380Z,24.93
2023-02-23T11:55:07.809Z,23.57
2023-02-23T11:58:20.961Z,22.97
2023-02-23T12:01:35.877Z,23.97
2023-02-23T12:04:47.445Z,22.80
2023-02-23T12:07:57.752Z,22.60
2023-02-23T12:11:05.360Z,23.67
2023-02-23T12:14:17.413Z,22.40
2023-02-23T12:17:25.042Z,22.33
2023-02-23T12:20:32.890Z,21.53
2023-02-23T12:23:39.939Z,22.73
2023-02-23T12:26:48.857Z,22.20
2023-02-23T12:30:06.286Z,22.13
2023-02-23T12:33:16.723Z,21.83
2023-02-23T12:36:29.882Z,21.60
2023-02-23T12:39:36.112Z,23.43
2023-02-23T12:42:43.986Z,21.87
2023-02-23T12:45:53.425Z,22.27
2023-02-23T12:49:04.060Z,22.03
2023-02-23T12:52:14.775Z,20.83
2023-02-23T12:55:30.135Z,21.03
2023-02-23T12:58:42.490Z,22.20
2023-02-23T13:01:51.272Z,19.60
2023-02-23T13:05:17.389Z,20.70
2023-02-23T13:08:30.603Z,20.73
2023-02-23T13:11:54.292Z,21.80
2023-02-23T13:15:03.905Z,20.20
2023-02-23T13:18:14.332Z,21.03
2023-02-23T13:21:25.286Z,20.77
2023-02-23T13:24:36.607Z,19.60
2023-02-23T13:27:44.939Z,18.97
2023-02-23T13:30:48.250Z,17.70
2023-02-23T13:33:51.974Z,18.43
2023-02-23T13:36:56.290Z,18.37
2023-02-23T13:40:12.543Z,18.47
2023-02-23T13:43:23.073Z,19.67
2023-02-23T13:46:33.339Z,18.77
2023-02-23T13:49:41.957Z,19.40
2023-02-23T13:52:47.230Z,18.50
2023-02-23T13:55:54.218Z,15.27
2023-02-23T13:59:02.447Z,16.63
2023-02-23T14:02:34.616Z,16.30
2023-02-23T14:05:44.483Z,15.13
2023-02-23T14:08:54.145Z,15.37
2023-02-23T14:12:16.976Z,14.53
2023-02-23T14:15:41.912Z,15.03
2023-02-23T14:19:13.297Z,14.23
2023-02-23T14:22:22.108Z,13.97
2023-02-23T14:25:47.926Z,12.33
2023-02-23T14:29:26.559Z,12.10
2023-02-23T14:32:31.908Z,12.23
2023-02-23T14:35:44.850Z,10.63
2023-02-23T14:38:48.536Z,12.30
2023-02-23T14:41:56.764Z,11.57
2023-02-23T14:45:08.650Z,10.07
2023-02-23T14:48:15.734Z,10.60
2023-02-23T14:51:25.207Z,9.70
2023-02-23T14:54:32.348Z,9.33
2023-02-23T14:57:38.150Z,9.37
2023-02-23T15:00:44.946Z,9.23
2023-02-23T15:04:05.980Z,8.43
2023-02-23T15:07:16.888Z,9.23
2023-02-23T15:10:25.562Z,8.77
2023-02-23T15:13:31.099Z,9.03
2023-02-23T15:16:37.409Z,9.63
2023-02-23T15:19:41.021Z,10.03
2023-02-23T15:22:47.362Z,9.90
2023-02-23T15:25:51.338Z,9.90
2023-02-23T15:28:56.281Z,9.97
2023-02-23T15:32:16.059Z,10.17
2023-02-23T15:35:19.622Z,10.90
2023-02-23T15:38:42.817Z,9.97
2023-02-23T15:41:50.229Z,10.17
2023-02-23T15:44:59.948Z,11.30
2023-02-23T15:48:07.521Z,11.00
2023-02-23T15:51:22.913Z,11.27
2023-02-23T15:54:29.848Z,12.50
2023-02-23T15:57:47.498Z,12.17
2023-02-23T16:00:56.358Z,13.20
2023-02-23T16:04:04.243Z,12.27
2023-02-23T16:07:16.137Z,12.80
2023-02-23T16:10:24.135Z,12.33
2023-02-23T16:13:27.636Z,11.03
2023-02-23T16:16:31.221Z,9.83
2023-02-23T16:19:40.818Z,9.40
2023-02-23T16:22:46.986Z,10.20
2023-02-23T16:25:55.490Z,9.57
2023-02-23T16:29:00.816Z,8.97
2023-02-23T16:32:15.898Z,7.30
2023-02-23T16:35:21.664Z,6.80
2023-02-23T16:38:27.521Z,6.40
2023-02-23T16:41:33.250Z,5.83
2023-02-23T16:44:43.408Z,7.23
2023-02-23T16:47:48.812Z,7.27
2023-02-23T16:50:53.425Z,7.43
2023-02-23T16:53:56.412Z,7.90
2023-02-23T16:56:59.481Z,8.33
2023-02-23T17:00:14.531Z,7.37
2023-02-23T17:03:21.221Z,6.30
2023-02-23T17:06:26.084Z,4.53
2023-02-23T17:09:29.043Z,3.40
2023-02-23T17:12:32.886Z,3.30
2023-02-23T17:15:38.294Z,3.07
2023-02-23T17:18:43.066Z,3.07
2023-02-23T17:21:48.710Z,3.23
2023-02-23T17:24:51.656Z,3.03
2023-02-23T17:27:55.397Z,2.20
2023-02-23T17:30:58.467Z,2.67
2023-02-23T17:34:01.547Z,2.83
2023-02-23T17:37:07.985Z,2.83
2023-02-23T17:40:13.649Z,3.00
2023-02-23T17:43:17.092Z,3.10
2023-02-23T17:46:20.365Z,2.60
2023-02-23T17:49:23.437Z,3.20
2023-02-23T17:52:28.694Z,2.33
2023-02-23T17:55:31.679Z,2.87
2023-02-23T17:58:34.901Z,4.17
2023-02-23T18:01:38.146Z,3.27
2023-02-23T18:04:41.575Z,2.93
2023-02-23T18:07:48.307Z,2.60
2023-02-23T18:10:52.725Z,3.63
2023-02-23T18:13:55.639Z,3.30
2023-02-23T18:16:58.584Z,3.43
2023-02-23T18:20:01.737Z,3.80
2023-02-23T18:23:06.053Z,3.67
2023-02-23T18:26:10.829Z,2.50
2023-02-23T18:29:14.931Z,2.77
2023-02-23T18:32:18.104Z,3.10
2023-02-23T18:35:21.164Z,2.87
2023-02-23T18:38:25.656Z,3.20
2023-02-23T18:41:30.743Z,2.80
2023-02-23T18:44:35.257Z,1.87
2023-02-23T18:47:38.339Z,2.90
2023-02-23T18:50:41.412Z,2.53
2023-02-23T18:53:45.879Z,1.97
2023-02-23T18:56:50.058Z,2.07
2023-02-23T18:59:52.994Z,2.30
2023-02-23T19:02:55.899Z,2.93
2023-02-23T19:05:59.036Z,2.03
2023-02-23T19:09:07.776Z,2.73
2023-02-23T19:12:11.817Z,2.73
2023-02-23T19:15:14.773Z,2.53
2023-02-23T19:18:17.727Z,2.50
2023-02-23T19:21:22.636Z,2.53
2023-02-23T19:24:27.090Z,2.37
2023-02-23T19:27:30.077Z,2.63
2023-02-23T19:30:33.192Z,1.93
2023-02-23T19:33:38.034Z,1.67
2023-02-23T19:36:41.192Z,1.87
2023-02-23T19:39:46.421Z,2.33
2023-02-23T19:42:50.029Z,1.73
2023-02-23T19:45:53.240Z,2.10
2023-02-23T19:48:56.603Z,1.70
2023-02-23T19:52:00.706Z,2.77
2023-02-23T19:55:05.707Z,2.10
2023-02-23T19:58:08.718Z,2.60
2023-02-23T20:01:14.693Z,2.10
2023-02-23T20:04:17.881Z,2.33
2023-02-23T20:07:20.977Z,2.90
2023-02-23T20:10:28.990Z,2.50
2023-02-23T20:13:31.948Z,2.93
2023-02-23T20:16:35.492Z,2.27
2023-02-23T20:19:38.689Z,2.10
2023-02-23T20:22:43.244Z,2.07
2023-02-23T20:25:47.709Z,2.70
2023-02-23T20:28:51.204Z,1.67
2023-02-23T20:31:54.395Z,1.70
2023-02-23T20:35:00.878Z,2.00
2023-02-23T20:38:04.603Z,2.50
2023-02-23T20:41:09.646Z,2.07
2023-02-23T20:44:12.816Z,2.10
2023-02-23T20:47:16.324Z,2.27
2023-02-23T20:50:19.484Z,2.20
2023-02-23T20:53:22.946Z,2.10
2023-02-23T20:56:32.778Z,1.80
2023-02-23T20:59:36.910Z,1.43
2023-02-23T21:02:41.954Z,2.47
2023-02-23T21:05:45.146Z,1.87
2023-02-23T21:08:49.921Z,1.60
2023-02-23T21:11:54.734Z,2.90
2023-02-23T21:14:57.665Z,1.80
2023-02-23T21:18:00.766Z,2.80
2023-02-23T21:21:09.388Z,1.57
2023-02-23T21:24:13.354Z,1.77
2023-02-23T21:27:17.699Z,1.70
2023-02-23T21:30:22.750Z,2.30
2023-02-23T21:33:25.792Z,1.60
2023-02-23T21:36:28.837Z,1.30
2023-02-23T21:39:31.824Z,1.50
2023-02-23T21:42:36.341Z,1.50
2023-02-23T21:45:40.013Z,1.83
2023-02-23T21:48:44.079Z,1.63
2023-02-23T21:51:47.083Z,1.73
2023-02-23T21:54:51.026Z,1.73
2023-02-23T21:57:56.376Z,1.53
2023-02-23T22:00:59.344Z,1.30
2023-02-23T22:04:03.093Z,1.23
2023-02-23T22:07:06.532Z,1.17
2023-02-23T22:10:10.190Z,1.37
2023-02-23T22:13:14.486Z,1.40
2023-02-23T22:16:20.262Z,1.40
2023-02-23T22:19:23.205Z,1.27
2023-02-23T22:22:26.433Z,1.30
2023-02-23T22:25:29.444Z,1.73
2023-02-23T22:28:34.848Z,1.07
2023-02-23T22:31:38.717Z,1.20
2023-02-23T22:34:41.839Z,1.17
2023-02-23T22:37:44.791Z,0.70
2023-02-23T22:40:48.541Z,0.80
2023-02-23T22:43:52.839Z,1.50
2023-02-23T22:46:55.962Z,1.50
2023-02-23T22:49:59.632Z,1.23
2023-02-23T22:53:02.785Z,1.43
2023-02-23T22:56:06.439Z,0.77
2023-02-23T22:59:10.934Z,1.17
2023-02-23T23:02:13.891Z,1.03
2023-02-23T23:05:17.744Z,1.10
2023-02-23T23:08:20.717Z,0.97
2023-02-23T23:11:26.652Z,1.10
2023-02-23T23:14:32.587Z,0.90
2023-02-23T23:17:35.557Z,1.27
2023-02-23T23:20:38.529Z,0.83
2023-02-23T23:23:43.389Z,0.77
2023-02-23T23:26:46.347Z,1.30
2023-02-23T23:29:50.628Z,1.23
2023-02-23T23:32:53.763Z,1.00
2023-02-23T23:35:57.018Z,0.60
2023-02-23T23:39:01.177Z,0.83
2023-02-23T23:42:05.368Z,1.20
2023-02-23T23:45:12.543Z,0.60
2023-02-23T23:48:15.691Z,0.70
2023-02-23T23:51:18.879Z,0.80
2023-02-23T23:54:25.002Z,1.00
2023-02-23T23:57:28.150Z,0.90
